Date,TemperatureHighF,TemperatureAvgF,TemperatureLowF,DewpointHighF,DewpointAvgF,DewpointLowF,HumidityHigh,HumidityAvg,HumidityLow,PressureMaxIn,PressureMinIn,WindSpeedMaxMPH,WindSpeedAvgMPH,GustSpeedMaxMPH,PrecipitationSumIn
2013-1-1,31.4,27.4,21.3,23.0,21.6,18.0,88,79,65,29.85,29.25,0,0,0,0.00
2013-1-2,26.7,21.2,15.5,22.0,18.1,13.0,92,87,79,29.68,29.29,0,0,0,0.00
2013-1-3,21.7,19.2,15.0,17.0,14.6,12.0,89,82,74,29.78,29.68,0,0,0,0.00
2013-1-4,22.7,15.7,10.7,16.0,10.7,7.0,87,81,73,29.96,29.76,0,0,0,0.00
2013-1-5,15.6,12.8,8.3,11.0,9.1,6.0,91,85,79,29.96,29.53,0,0,0,0.00
2013-1-6,18.4,15.5,12.0,13.0,10.4,8.0,87,80,76,29.54,29.36,0,0,0,0.00
2013-1-7,16.3,9.0,-4.1,11.0,4.9,-7.0,89,83,76,29.65,29.29,0,0,0,0.00
2013-1-8,-0.6,-2.9,-6.7,-4.0,-6.0,-10.0,87,87,85,30.27,29.66,0,0,0,0.00
2013-1-9,0.0,-2.2,-5.4,-3.0,-5.2,-9.0,89,87,86,30.35,30.08,0,0,0,0.00
2013-1-10,10.9,6.8,-1.1,9.0,4.6,-4.0,91,90,88,30.23,30.05,0,0,0,0.00
2013-1-11,13.9,10.9,7.1,12.0,8.9,5.0,93,91,88,30.34,30.02,0,0,0,0.00
2013-1-12,23.8,19.1,13.1,23.0,17.7,11.0,95,94,92,30.33,29.85,0,0,0,0.00
2013-1-13,31.9,29.5,23.6,31.0,28.7,22.0,98,97,93,29.88,29.63,0,0,0,0.00
2013-1-14,34.2,32.6,29.0,34.0,32.2,28.0,99,98,94,29.94,29.34,1,0,4,0.10
2013-1-15,28.1,13.8,8.3,26.0,11.9,7.0,94,92,87,30.35,29.96,2,0,6,0.00
2013-1-16,10.4,6.1,2.0,9.0,4.2,0.0,93,91,87,30.36,29.99,0,0,1,0.00
2013-1-17,5.5,0.7,-7.9,3.0,-1.8,-11.0,92,89,85,30.33,29.95,0,0,1,0.00
2013-1-18,-7.3,-10.1,-12.4,-10.0,-13.4,-16.0,87,85,84,30.62,30.34,0,0,1,0.00
2013-1-19,4.2,-0.6,-9.3,-1.0,-4.5,-12.0,88,84,77,30.63,30.27,0,0,2,0.00
2013-1-20,8.9,6.3,0.4,7.0,3.1,-4.0,91,86,78,30.27,30.18,0,0,1,0.00
2013-1-21,10.0,6.6,1.4,7.0,3.8,-1.0,90,88,82,30.29,30.18,0,0,2,0.00
2013-1-22,6.5,2.7,-0.3,2.0,-0.5,-3.0,89,86,82,30.18,29.91,0,0,2,0.00
2013-1-23,5.9,3.0,0.4,1.0,-2.0,-7.0,86,79,71,29.91,29.78,0,0,3,0.00
2013-1-24,0.0,-5.7,-12.2,-5.0,-9.7,-16.0,86,82,72,30.01,29.84,0,0,3,0.00
2013-1-25,-12.5,-23.6,-32.6,-16.0,-27.6,-37.0,85,81,76,30.23,30.01,0,0,0,0.00
2013-1-26,-28.4,-33.6,-37.5,-33.0,-38.2,-42.0,79,77,76,30.40,30.23,0,0,0,0.00
2013-1-27,-33.4,-38.2,-41.0,-38.0,-43.1,-46.0,78,75,74,30.85,30.40,0,0,0,0.00
2013-1-28,-15.6,-29.1,-41.0,-19.0,-33.5,-46.0,84,79,73,30.88,30.33,0,0,0,0.00
2013-1-29,-6.2,-9.6,-16.5,-11.0,-13.4,-20.0,85,83,78,30.31,30.07,0,0,0,0.00
2013-1-30,6.4,-0.0,-8.0,4.0,-3.3,-12.0,89,86,81,30.13,29.84,0,0,0,0.00
2013-1-31,10.1,7.2,4.2,7.0,4.8,2.0,91,89,87,30.26,29.89,0,0,0,0.00
2013-2-1,12.6,7.8,4.5,10.0,5.8,2.0,92,91,89,30.33,30.04,0,0,0,0.00
2013-2-2,19.0,12.8,8.7,14.0,9.6,6.0,90,87,78,30.03,29.67,0,0,0,0.00
2013-2-3,14.0,10.9,7.3,11.0,8.1,4.0,90,88,85,29.67,29.46,0,0,0,0.00
2013-2-4,13.5,9.8,7.3,11.0,7.6,5.0,92,90,88,29.80,29.63,0,0,0,0.00
2013-2-5,7.2,1.5,-1.1,5.0,-1.0,-4.0,91,89,88,29.81,29.77,0,0,0,0.00
2013-2-6,3.3,0.3,-3.2,1.0,-2.4,-6.0,90,88,87,29.89,29.76,0,0,0,0.00
2013-2-7,11.1,4.1,-1.0,9.0,1.7,-4.0,91,89,87,29.87,29.46,0,0,0,0.00
2013-2-8,7.7,3.7,-1.3,5.0,1.1,-4.0,91,89,86,29.97,29.50,0,0,0,0.00
2013-2-9,26.8,18.8,4.6,25.0,16.9,2.0,95,92,90,29.97,29.18,0,0,0,0.00
2013-2-10,33.3,22.4,9.9,29.0,19.8,7.0,95,90,81,29.62,29.08,0,0,0,0.00
2013-2-11,21.7,16.2,7.4,18.0,14.3,5.0,95,91,86,29.86,29.62,0,0,0,0.00
2013-2-12,14.7,7.1,2.2,13.0,5.1,0.0,92,91,88,29.94,29.86,0,0,0,0.01
2013-2-13,17.1,10.5,5.9,14.0,8.1,4.0,92,90,86,29.95,29.89,0,0,0,0.00
2013-2-14,24.0,17.7,10.9,19.0,13.2,8.0,90,83,70,29.91,29.47,0,0,0,0.00
2013-2-15,22.7,8.4,-2.8,19.0,5.0,-6.0,90,86,82,30.20,29.57,0,0,0,0.00
2013-2-16,4.3,-3.1,-10.9,-2.0,-6.8,-14.0,88,84,75,30.27,30.05,0,0,0,0.00
2013-2-17,0.6,-5.8,-10.9,-4.0,-9.7,-14.0,86,83,79,30.34,30.00,0,0,0,0.00
2013-2-18,-7.9,-15.0,-25.0,-12.0,-19.0,-29.0,85,82,76,30.44,30.33,0,0,0,0.00
2013-2-19,-3.6,-15.5,-28.7,-10.0,-20.1,-33.0,86,79,73,30.33,29.80,0,0,0,0.00
2013-2-20,0.7,-5.4,-14.2,-7.0,-11.5,-18.0,82,75,65,29.79,29.56,0,0,0,0.00
2013-2-21,-1.1,-4.2,-7.4,-7.0,-9.8,-13.0,83,77,65,29.62,29.51,0,0,0,0.00
2013-2-22,-2.2,-7.6,-13.8,-9.0,-12.3,-18.0,85,80,74,29.78,29.55,0,0,0,0.00
2013-2-23,5.0,-4.8,-14.1,-2.0,-10.1,-18.0,83,78,67,29.73,29.48,0,0,0,0.00
2013-2-24,4.6,-3.6,-10.8,-5.0,-9.1,-15.0,83,77,62,29.86,29.52,0,0,0,0.00
2013-2-25,20.5,4.5,-9.6,11.0,-1.0,-13.0,86,78,63,29.93,29.86,0,0,0,0.00
2013-2-26,25.9,15.1,6.7,13.0,6.8,2.0,82,70,56,29.92,29.62,0,0,0,0.00
2013-2-27,31.1,18.9,9.1,16.0,10.5,5.0,84,71,51,29.62,29.45,0,0,0,0.00
2013-2-28,31.0,19.6,9.7,13.0,9.2,4.0,79,65,45,29.60,29.49,0,0,0,0.00
2013-3-1,16.6,10.7,6.6,10.0,6.1,2.0,90,82,74,30.14,29.61,0,0,0,0.00
2013-3-2,18.4,8.7,1.5,14.0,5.9,-1.0,92,88,80,30.30,30.14,0,0,0,0.00
2013-3-3,25.0,11.0,1.5,15.0,6.6,-2.0,92,83,62,30.55,30.30,0,0,0,0.00
2013-3-4,31.1,14.6,0.5,15.0,7.0,-3.0,90,74,47,30.61,30.41,0,0,0,0.00
2013-3-5,32.8,21.8,12.9,14.0,9.9,6.0,76,62,41,30.41,30.05,0,0,0,0.00
2013-3-6,20.3,13.9,8.0,8.0,4.9,3.0,82,68,57,30.05,29.99,0,0,0,0.00
2013-3-7,35.0,22.9,7.5,21.0,13.5,3.0,84,69,52,29.99,29.54,0,0,0,0.00
2013-3-8,42.7,32.2,23.2,26.0,20.6,16.0,78,63,47,29.72,29.59,0,0,2,0.08
2013-3-9,40.2,29.5,17.6,25.0,20.9,12.0,92,71,51,30.11,29.72,2,0,5,0.04
2013-3-10,28.1,22.3,12.2,26.0,17.8,9.0,95,83,60,30.42,30.11,3,0,5,0.00
2013-3-11,22.1,12.5,4.6,13.0,8.1,2.0,91,83,66,30.71,30.43,2,0,4,0.00
2013-3-12,23.2,10.8,-2.5,6.0,-0.3,-7.0,90,65,36,30.73,30.49,2,0,5,0.00
2013-3-13,14.7,3.3,-4.3,-1.0,-9.5,-18.0,75,57,32,30.48,30.38,5,1,16,0.00
2013-3-14,17.7,2.0,-10.8,-5.0,-13.2,-20.0,65,50,34,30.41,30.32,5,0,6,0.00
2013-3-15,21.8,5.5,-5.5,-4.0,-11.1,-17.0,63,48,28,30.35,30.09,3,0,8,0.00
2013-3-16,24.4,10.5,-1.9,4.0,-5.4,-13.0,62,50,36,30.32,30.16,2,0,5,0.00
2013-3-17,17.3,6.3,-6.1,0.0,-4.9,-12.0,78,61,44,30.44,30.30,1,0,4,0.00
2013-3-18,18.1,6.2,-4.5,2.0,-4.0,-9.0,81,64,45,30.30,30.13,1,0,4,0.00
2013-3-19,15.0,4.8,-5.5,-5.0,-8.3,-15.0,80,57,35,30.27,30.18,2,0,7,0.00
2013-3-20,9.6,-1.3,-12.7,-3.0,-10.7,-19.0,81,65,54,30.20,30.08,3,0,7,0.00
2013-3-21,21.8,8.9,-1.9,12.0,1.0,-6.0,84,72,43,30.27,30.14,2,0,7,0.00
2013-3-22,32.1,21.7,10.8,14.0,6.8,0.0,67,53,37,30.16,29.80,3,0,6,0.00
2013-3-23,26.7,4.4,-8.1,21.0,-3.0,-12.0,88,72,51,30.20,29.81,3,0,8,0.00
2013-3-24,11.0,0.6,-10.0,4.0,-4.9,-14.0,86,78,59,30.20,29.91,2,0,4,0.00
2013-3-25,7.6,3.9,1.3,2.0,-0.6,-4.0,86,81,74,29.91,29.76,0,0,0,0.00
2013-3-26,4.3,-1.4,-9.3,-4.0,-8.8,-14.0,83,71,52,30.36,29.92,6,0,10,0.00
2013-3-27,10.9,-4.0,-20.3,-3.0,-12.9,-25.0,82,68,48,30.42,30.29,2,0,4,0.00
2013-3-28,31.7,11.7,-8.9,12.0,0.3,-13.0,85,64,37,30.29,30.02,2,0,4,0.00
2013-3-29,43.0,27.9,14.4,19.0,12.3,6.0,71,54,33,30.03,29.94,1,0,3,0.17
2013-3-30,38.2,27.6,14.6,18.0,14.2,9.0,79,59,40,30.30,30.02,4,0,6,0.05
2013-3-31,40.0,31.2,24.0,28.0,21.7,17.0,87,69,56,30.35,30.24,3,0,4,0.06
2013-4-1,38.2,29.7,22.4,27.0,21.9,16.0,95,75,50,30.24,30.14,2,0,5,0.03
2013-4-2,37.2,25.7,16.2,17.0,14.0,11.0,81,63,40,30.32,30.18,3,0,5,0.00
2013-4-3,32.0,21.8,14.3,11.0,6.3,0.0,74,54,32,30.60,30.32,8,1,9,0.00
2013-4-4,29.9,17.4,6.8,1.0,-1.4,-4.0,63,46,25,30.61,30.23,6,1,9,0.00
2013-4-5,18.2,10.7,2.8,0.0,-6.0,-9.0,65,48,33,30.22,29.87,4,0,9,0.00
2013-4-6,19.7,7.5,-3.2,-2.0,-8.0,-13.0,64,51,34,29.87,29.72,4,0,6,0.00
2013-4-7,8.7,3.9,-2.3,3.0,-2.9,-11.0,87,74,53,30.05,29.77,3,0,5,0.00
2013-4-8,13.6,4.2,-8.3,7.0,-0.3,-12.0,87,82,68,30.08,29.61,2,0,4,0.00
2013-4-9,11.4,8.0,5.4,7.0,4.3,2.0,88,84,75,29.61,29.26,3,0,6,0.00
2013-4-10,13.5,6.8,-0.5,3.0,-1.5,-6.0,87,70,50,30.09,29.59,4,0,8,0.00
2013-4-11,14.1,2.4,-12.5,0.0,-6.7,-17.0,83,68,48,30.39,30.10,3,0,8,0.00
2013-4-12,23.5,8.8,-10.1,5.0,-2.5,-14.0,84,63,43,30.49,30.40,2,0,6,0.00
2013-4-13,26.3,12.8,-5.8,4.0,-1.7,-10.0,81,56,33,30.61,30.50,3,0,6,0.00
2013-4-14,28.1,17.1,3.5,17.0,6.9,-3.0,79,65,44,30.70,30.62,1,0,4,0.00
2013-4-15,32.0,23.3,14.7,13.0,7.4,4.0,80,53,31,30.66,30.56,5,0,8,0.00
2013-4-16,28.8,20.3,10.9,15.0,6.4,1.0,65,55,42,30.56,30.36,3,0,6,0.00
2013-4-17,31.4,22.1,11.5,11.0,7.4,4.0,72,54,38,30.49,30.37,4,0,10,0.00
2013-4-18,32.0,22.3,13.3,10.0,5.2,1.0,61,49,34,30.55,30.48,7,1,10,0.00
2013-4-19,40.2,25.5,6.1,14.0,6.6,0.0,79,48,24,30.60,30.52,3,0,7,0.01
2013-4-20,44.8,30.8,16.6,14.0,9.2,6.0,66,43,23,30.54,30.38,4,0,7,0.00
2013-4-21,43.7,31.6,16.8,16.0,10.9,8.0,76,46,23,30.48,30.42,4,0,7,0.00
2013-4-22,46.3,33.8,17.7,16.0,11.0,7.0,74,43,20,30.58,30.48,4,0,8,0.00
2013-4-23,48.5,35.5,21.8,20.0,15.0,11.0,70,46,26,30.51,30.28,4,0,8,0.00
2013-4-24,35.6,32.5,26.5,31.0,25.5,13.0,94,77,40,30.28,30.06,5,1,12,0.11
2013-4-25,32.7,24.8,16.1,22.0,5.1,-5.0,85,45,29,30.21,30.09,7,1,11,0.00
2013-4-26,32.5,22.5,9.9,22.0,9.9,3.0,91,60,38,30.14,29.74,3,0,8,0.00
2013-4-27,27.7,22.5,13.0,21.0,6.2,-7.0,94,55,26,30.29,29.80,6,1,12,0.00
2013-4-28,34.3,20.1,2.2,18.0,1.6,-7.0,67,47,26,30.33,30.24,3,0,9,0.00
2013-4-29,31.2,27.2,20.5,27.0,20.5,13.0,94,76,62,30.28,30.20,5,0,7,0.00
2013-4-30,37.2,30.3,25.3,29.0,26.4,21.0,95,86,65,30.20,29.98,2,0,4,0.11
2013-5-1,38.2,29.5,23.0,23.0,19.2,13.0,91,68,47,29.98,29.75,6,1,11,0.01
2013-5-2,37.8,28.9,19.5,23.0,17.0,12.0,74,62,47,30.02,29.82,3,0,6,0.00
2013-5-3,43.1,32.3,25.4,30.0,25.9,21.0,92,79,54,30.05,29.92,3,0,8,0.04
2013-5-4,32.4,27.1,21.1,24.0,21.9,19.0,93,81,68,30.09,29.99,4,0,6,0.00
2013-5-5,38.9,30.2,19.4,21.0,15.1,10.0,90,58,33,30.24,30.10,5,1,9,0.01
2013-5-6,43.9,33.1,18.5,16.0,13.1,11.0,75,47,27,30.30,30.22,5,1,9,0.00
2013-5-7,45.7,36.1,24.4,21.0,16.3,13.0,72,47,30,30.36,30.29,6,1,10,0.00
2013-5-8,50.0,38.5,24.0,21.0,17.7,14.0,80,47,25,30.42,30.33,6,1,8,0.00
2013-5-9,57.7,44.1,27.8,24.0,20.5,18.0,78,44,22,30.46,30.27,5,0,6,0.00
2013-5-10,57.1,47.9,37.1,28.0,21.9,15.0,66,39,21,30.30,30.02,3,0,7,0.00
2013-5-11,59.2,47.9,35.3,29.0,25.3,19.0,70,43,26,30.02,29.72,7,0,7,0.00
2013-5-12,50.5,42.6,35.7,31.0,27.7,23.0,72,57,36,29.72,29.54,5,0,9,0.00
2013-5-13,38.5,29.6,23.3,28.0,8.3,2.0,70,41,31,29.75,29.58,5,1,9,0.00
2013-5-14,40.5,31.1,21.6,15.0,11.6,7.0,65,46,30,29.78,29.71,5,1,8,0.00
2013-5-15,48.6,37.0,22.4,20.0,16.0,12.0,74,45,27,29.80,29.72,4,1,11,0.00
2013-5-16,52.9,41.9,28.4,27.0,22.1,17.0,72,47,28,29.77,29.49,7,0,8,0.00
2013-5-17,41.4,34.1,25.9,31.0,28.3,23.0,91,80,56,29.74,29.46,5,1,7,0.00
2013-5-18,31.7,26.1,21.3,23.0,11.5,4.0,91,57,32,30.29,29.75,7,1,9,0.00
2013-5-19,43.1,31.9,18.4,14.0,9.8,5.0,70,43,25,30.68,30.31,4,1,10,0.01
2013-5-20,53.2,41.4,25.7,19.0,14.8,11.0,71,38,20,30.75,30.51,6,1,7,0.00
2013-5-21,61.4,48.0,29.8,22.0,16.9,11.0,68,34,14,30.55,30.21,5,1,7,0.00
2013-5-22,65.8,52.7,36.6,28.0,24.2,20.0,61,36,19,30.21,30.01,4,1,8,0.00
2013-5-23,63.1,51.5,35.9,40.0,32.7,27.0,72,50,35,30.17,30.07,7,1,11,0.00
2013-5-24,69.1,57.0,39.9,40.0,36.1,31.0,85,50,25,30.21,30.03,5,0,6,0.00
2013-5-25,75.1,61.8,46.7,34.0,30.9,27.0,58,34,18,30.05,29.86,4,0,6,0.00
2013-5-26,78.8,62.6,41.0,40.0,33.4,29.0,69,37,17,29.93,29.82,4,0,7,0.00
2013-5-27,80.7,66.6,48.5,40.0,38.0,35.0,64,38,21,29.92,29.79,3,0,6,0.00
2013-5-28,82.2,67.5,52.6,42.0,37.8,33.0,57,36,18,29.84,29.71,5,0,6,0.00
2013-5-29,80.6,69.1,55.2,40.0,35.6,31.0,51,31,17,29.75,29.68,5,0,8,0.00
2013-5-30,81.8,69.0,51.1,43.0,35.9,26.0,66,33,14,29.88,29.74,4,0,7,0.00
2013-5-31,81.4,66.6,50.8,50.0,39.2,24.0,69,41,14,30.02,29.89,4,1,10,0.00
2013-6-1,76.2,64.2,47.6,44.0,38.8,33.0,73,42,22,30.11,30.00,5,1,8,0.00
2013-6-2,79.1,66.2,50.3,47.0,41.1,37.0,73,44,22,30.10,29.88,5,0,6,0.00
2013-6-3,60.4,53.7,49.7,52.0,48.1,44.0,95,82,58,29.96,29.71,2,0,7,0.14
2013-6-4,59.0,51.4,47.5,52.0,48.2,45.0,98,89,60,29.71,29.61,4,0,6,0.23
2013-6-5,53.5,48.7,44.5,50.0,47.3,44.0,98,95,84,29.94,29.68,3,0,8,0.51
2013-6-6,64.3,53.5,45.7,52.0,47.4,42.0,99,82,45,29.96,29.84,3,0,7,0.03
2013-6-7,71.0,58.5,45.1,49.0,43.5,38.0,96,62,33,29.97,29.87,5,0,6,0.00
2013-6-8,72.5,59.9,47.1,52.0,44.2,39.0,85,59,34,30.15,29.97,7,0,9,0.01
2013-6-9,66.8,58.1,48.3,50.0,44.4,40.0,87,63,40,30.27,30.16,4,0,11,0.00
2013-6-10,58.5,52.4,46.9,48.0,44.0,41.0,94,74,54,30.33,30.26,5,0,7,0.01
2013-6-11,63.9,52.9,39.6,49.0,41.8,38.0,95,69,41,30.35,30.18,2,0,5,0.01
2013-6-12,70.3,58.6,42.3,41.0,34.9,29.0,75,45,23,30.21,30.11,8,0,8,0.00
2013-6-13,75.8,62.3,44.3,42.0,36.1,26.0,76,43,17,30.20,30.11,3,0,5,0.00
2013-6-14,80.3,67.6,49.7,45.0,37.7,25.0,67,37,14,30.22,30.15,2,0,6,0.00
2013-6-15,82.4,68.8,50.0,49.0,42.1,37.0,67,41,21,30.30,30.20,5,0,5,0.00
2013-6-16,84.5,73.5,58.8,56.0,50.9,44.0,71,47,32,30.29,30.17,5,1,8,0.00
2013-6-17,84.3,72.9,60.3,53.0,43.3,29.0,72,40,14,30.25,30.15,4,0,8,0.00
2013-6-18,84.9,70.8,57.0,46.0,41.7,38.0,56,37,20,30.16,29.92,3,0,6,0.00
2013-6-19,86.8,73.6,54.5,50.0,42.8,37.0,67,37,19,29.96,29.83,6,0,11,0.00
2013-6-20,82.9,71.5,55.7,50.0,43.2,39.0,66,39,22,29.97,29.81,3,0,5,0.00
2013-6-21,70.2,63.9,58.4,56.0,50.5,42.0,88,63,36,29.95,29.81,2,0,6,0.03
2013-6-22,72.6,61.8,47.2,51.0,44.8,40.0,87,58,33,29.95,29.76,2,0,6,0.00
2013-6-23,82.3,68.9,52.1,50.0,43.5,38.0,67,43,21,29.77,29.61,4,0,7,0.00
2013-6-24,85.5,73.5,58.3,51.0,46.8,41.0,64,41,21,29.70,29.62,3,0,7,0.00
2013-6-25,91.4,77.6,63.6,57.0,51.8,49.0,66,43,24,29.70,29.62,5,0,7,0.00
2013-6-26,89.1,77.8,63.5,56.0,51.7,49.0,67,43,25,29.73,29.66,2,0,4,0.00
2013-6-27,80.8,72.4,62.3,61.0,57.2,49.0,75,60,43,30.00,29.72,6,0,9,0.00
2013-6-28,78.1,69.0,59.7,59.0,56.4,54.0,83,66,46,30.08,30.00,2,0,5,0.00
2013-6-29,74.9,68.4,60.6,60.0,57.1,54.0,87,69,49,30.05,29.93,2,0,3,0.00
2013-6-30,87.3,70.8,56.1,59.0,53.3,48.0,80,57,30,29.94,29.66,3,0,7,0.00
2013-7-1,75.1,64.7,54.7,53.0,48.9,46.0,83,58,39,29.70,29.48,2,0,7,0.00
2013-7-2,70.4,58.2,48.5,53.0,46.1,38.0,92,68,33,29.78,29.57,2,0,8,0.06
2013-7-3,65.6,56.8,43.8,50.0,44.5,40.0,96,67,40,29.97,29.78,4,0,7,0.00
2013-7-4,66.8,56.4,44.4,50.0,42.8,39.0,84,62,37,30.07,29.94,2,0,8,0.00
2013-7-5,65.9,56.3,44.2,47.0,43.3,41.0,93,65,42,30.13,30.02,5,0,7,0.00
2013-7-6,73.3,59.2,44.5,47.0,43.5,41.0,88,60,32,30.03,29.80,4,0,5,0.00
2013-7-7,66.0,58.0,48.5,52.0,46.6,43.0,82,67,47,29.79,29.57,2,0,4,0.00
2013-7-8,60.5,53.2,48.4,53.0,49.4,46.0,96,87,72,29.80,29.60,0,0,2,0.13
2013-7-9,63.7,54.9,49.0,55.0,49.6,47.0,97,84,57,30.05,29.80,5,0,6,0.02
2013-7-10,56.6,52.7,50.3,52.0,50.5,49.0,97,92,80,30.12,30.03,1,0,5,0.53
2013-7-11,63.8,56.7,50.2,55.0,51.0,48.0,98,82,59,30.16,30.10,2,0,5,0.00
2013-7-12,76.1,62.5,48.1,51.0,43.7,35.0,88,56,23,30.13,30.01,3,0,4,0.00
2013-7-13,82.0,69.4,55.4,47.0,42.4,40.0,64,40,24,30.07,30.01,4,0,4,0.00
2013-7-14,84.9,70.8,53.1,53.0,48.2,43.0,76,47,28,30.17,30.05,3,0,7,0.00
2013-7-15,78.9,69.0,58.0,57.0,52.0,49.0,77,56,37,30.23,30.13,3,0,6,0.00
2013-7-16,67.3,62.6,58.9,56.0,53.4,51.0,83,72,63,30.21,30.15,3,0,5,0.00
2013-7-17,68.4,61.6,56.0,55.0,52.2,48.0,93,73,49,30.16,30.09,4,0,8,0.00
2013-7-18,71.6,62.5,54.7,58.0,52.9,49.0,97,73,48,30.21,30.08,3,0,7,0.46
2013-7-19,59.1,57.0,54.3,57.0,56.0,53.0,98,96,92,30.17,30.11,3,0,5,0.35
2013-7-20,59.3,54.4,52.1,56.0,52.9,52.0,98,95,82,30.17,30.15,2,0,6,0.22
2013-7-21,65.8,56.8,50.4,55.0,51.6,49.0,98,84,59,30.23,30.17,1,0,7,0.01
2013-7-22,70.2,58.8,44.7,54.0,49.5,44.0,98,74,48,30.29,30.17,2,0,5,0.00
2013-7-23,75.1,64.3,54.0,56.0,53.1,51.0,90,69,45,30.19,30.06,2,0,7,0.00
2013-7-24,71.1,63.4,56.7,63.0,56.9,53.0,93,80,63,30.09,30.01,2,0,7,0.04
2013-7-25,71.5,63.1,56.7,58.0,54.4,49.0,93,75,50,30.12,30.02,4,0,5,0.00
2013-7-26,72.4,61.1,48.3,54.0,50.2,46.0,93,70,44,30.25,30.12,5,0,8,0.00
2013-7-27,75.8,65.3,51.8,59.0,54.8,50.0,94,71,49,30.31,30.25,3,0,7,0.00
2013-7-28,83.1,69.9,54.6,58.0,54.8,52.0,92,62,35,30.27,30.08,3,0,7,0.00
2013-7-29,78.3,69.9,60.9,59.0,54.8,50.0,82,60,42,30.17,30.10,4,0,9,0.00
2013-7-30,75.6,64.4,51.4,57.0,52.1,49.0,92,67,44,30.25,30.16,3,0,5,0.00
2013-7-31,77.9,64.8,48.4,54.0,50.7,47.0,94,64,39,30.24,30.07,4,0,9,0.00
2013-8-1,82.2,70.4,52.5,56.0,50.9,49.0,87,54,32,30.09,29.86,4,0,4,0.00
2013-8-2,81.1,69.5,57.3,53.0,48.8,44.0,77,51,28,29.91,29.76,4,0,6,0.00
2013-8-3,81.9,66.7,57.5,61.0,47.4,37.0,89,54,24,29.78,29.68,2,0,6,0.04
2013-8-4,72.8,62.7,53.2,56.0,49.4,44.0,88,65,37,29.94,29.79,2,0,4,0.00
2013-8-5,75.9,61.7,47.2,52.0,47.2,44.0,95,63,33,30.00,29.91,2,0,5,0.00
2013-8-6,80.3,66.0,48.5,51.0,45.6,39.0,89,53,23,30.01,29.85,2,0,5,0.00
2013-8-7,85.6,68.8,52.6,52.0,46.7,42.0,74,48,22,29.87,29.65,4,0,6,0.00
2013-8-8,79.6,65.9,54.5,50.0,44.0,40.0,71,48,25,29.73,29.65,1,0,3,0.00
2013-8-9,69.8,62.3,53.9,50.0,45.1,41.0,69,54,39,29.76,29.70,1,0,3,0.00
2013-8-10,68.4,60.2,52.1,56.0,48.0,45.0,81,65,48,30.04,29.75,5,0,7,0.00
2013-8-11,77.0,60.9,46.9,51.0,47.4,43.0,89,64,35,30.13,29.98,3,0,5,0.00
2013-8-12,72.6,61.7,51.5,58.0,53.5,48.0,89,76,57,30.12,30.02,5,0,5,0.00
2013-8-13,77.9,64.8,51.1,60.0,55.6,50.0,96,75,48,30.05,29.86,2,0,5,0.00
2013-8-14,67.7,61.2,54.6,57.0,54.6,51.0,93,79,63,29.95,29.86,3,0,5,0.00
2013-8-15,65.2,57.5,52.8,59.0,54.0,50.0,97,88,73,29.92,29.75,1,0,5,0.08
2013-8-16,67.3,59.2,53.1,58.0,53.5,50.0,98,83,57,29.77,29.68,1,0,3,0.00
2013-8-17,72.6,60.1,46.6,55.0,49.7,46.0,97,72,44,29.69,29.54,4,0,6,0.00
2013-8-18,68.1,58.8,52.5,59.0,51.9,50.0,91,79,53,29.61,29.54,4,0,5,0.06
2013-8-19,64.1,55.8,49.6,54.0,50.5,47.0,96,83,55,29.71,29.60,1,0,4,0.01
2013-8-20,53.5,50.2,44.6,52.0,49.3,44.0,98,97,93,29.85,29.71,1,0,3,0.85
2013-8-21,57.6,49.2,43.1,51.0,44.5,41.0,99,85,57,29.89,29.77,2,0,3,0.46
2013-8-22,63.1,52.5,40.9,52.0,45.0,39.0,96,77,54,29.79,29.65,2,0,6,0.01
2013-8-23,54.6,50.6,44.1,53.0,49.8,44.0,98,97,91,29.74,29.59,1,0,3,0.85
2013-8-24,56.3,47.1,37.9,45.0,39.3,34.0,98,77,44,30.01,29.75,5,0,8,0.00
2013-8-25,57.7,44.9,32.1,37.0,33.6,30.0,94,68,38,30.02,29.82,3,0,6,0.00
2013-8-26,61.4,48.9,37.2,39.0,35.0,32.0,84,62,36,29.92,29.84,2,0,5,0.00
2013-8-27,62.4,50.1,39.1,48.0,39.3,33.0,83,68,46,29.89,29.71,2,0,5,0.00
2013-8-28,54.9,50.0,46.7,48.0,46.3,44.0,97,88,69,29.79,29.71,1,0,2,0.04
2013-8-29,53.2,49.6,45.2,52.0,48.1,44.0,98,94,90,29.92,29.73,0,0,1,0.14
2013-8-30,53.4,48.9,43.8,50.0,46.6,43.0,98,92,71,30.04,29.93,2,0,4,0.05
2013-8-31,48.9,42.8,36.8,43.0,37.8,34.0,96,83,57,30.06,30.00,1,0,4,0.00
2013-9-1,50.8,42.1,33.2,41.0,34.6,30.0,95,76,52,30.01,29.76,2,0,4,0.00
2013-9-2,56.8,48.3,42.2,55.0,47.2,40.0,98,96,84,29.76,29.46,2,0,4,0.27
2013-9-3,67.0,55.7,47.1,55.0,49.6,46.0,97,82,54,29.50,29.25,1,0,6,0.07
2013-9-4,57.8,49.8,43.8,52.0,47.6,43.0,99,93,67,29.73,29.43,1,0,5,0.05
2013-9-5,59.5,48.9,41.4,48.0,44.3,41.0,98,85,59,30.05,29.74,1,0,3,0.00
2013-9-6,50.5,45.4,39.3,48.0,43.6,38.0,98,93,83,30.08,29.55,1,0,2,0.10
2013-9-7,54.9,48.0,41.4,53.0,47.1,41.0,99,96,91,29.74,29.55,1,0,2,0.01
2013-9-8,51.2,47.9,45.8,51.0,47.5,46.0,99,98,97,29.86,29.53,0,0,2,0.31
2013-9-9,57.6,48.8,39.8,53.0,46.5,40.0,99,92,77,29.89,29.76,1,0,3,0.00
2013-9-10,66.5,52.1,41.1,49.0,44.2,39.0,95,77,47,29.79,29.73,2,0,3,0.00
2013-9-11,49.9,46.1,41.6,49.0,44.4,40.0,98,94,83,29.87,29.63,2,0,5,0.81
2013-9-12,57.9,48.5,41.7,51.0,46.3,41.0,99,92,74,30.02,29.88,3,0,3,0.02
2013-9-13,49.5,43.9,36.0,48.0,42.9,35.0,98,96,89,30.03,29.91,1,0,2,0.04
2013-9-14,49.3,44.6,35.2,47.0,43.7,35.0,99,96,88,30.16,30.02,1,0,2,0.16
2013-9-15,50.3,37.8,27.4,40.0,33.0,27.0,99,85,55,30.21,30.07,1,0,2,0.00
2013-9-16,51.8,40.0,31.0,32.0,28.7,26.0,86,66,38,30.07,29.78,5,0,8,0.00
2013-9-17,42.9,35.0,27.2,29.0,25.7,22.0,83,69,52,29.78,29.71,3,0,5,0.00
2013-9-18,34.9,31.8,28.5,33.0,29.8,28.0,97,92,78,29.83,29.75,0,0,1,0.06
2013-9-19,37.0,30.4,25.6,31.0,27.9,24.0,97,90,68,29.83,29.70,1,0,3,0.02
2013-9-20,35.3,28.6,24.6,29.0,25.6,24.0,97,89,69,29.70,29.31,1,0,4,0.00
2013-9-21,38.3,29.2,20.5,25.0,21.9,18.0,91,75,55,29.32,29.24,2,0,3,0.00
2013-9-22,31.7,29.5,27.8,29.0,25.9,22.0,96,86,75,29.61,29.33,1,0,3,0.00
2013-9-23,35.1,29.0,23.5,31.0,27.0,23.0,97,92,80,29.98,29.61,1,0,3,0.01
2013-9-24,36.2,31.0,27.2,28.0,26.3,23.0,95,83,63,30.14,29.86,1,0,5,0.00
2013-9-25,54.4,41.7,31.2,38.0,33.7,26.0,95,74,54,29.85,29.48,2,0,5,0.21
2013-9-26,48.0,41.4,35.4,41.0,37.5,34.0,94,86,72,29.73,29.42,1,0,2,0.00
2013-9-27,56.4,43.6,35.5,38.0,35.2,33.0,92,74,45,29.41,29.24,2,0,5,0.00
2013-9-28,46.3,39.1,33.1,38.0,34.9,31.0,97,85,69,29.41,29.34,2,0,4,0.03
2013-9-29,40.8,36.4,31.4,38.0,34.6,31.0,98,93,78,29.70,29.42,1,0,6,0.01
2013-9-30,40.7,36.8,31.6,32.0,29.8,28.0,94,76,63,29.93,29.70,1,0,4,0.00
2013-10-1,37.1,32.9,30.0,33.0,30.7,29.0,97,91,83,30.02,29.93,2,0,3,0.01
2013-10-2,45.7,36.6,32.4,35.0,32.1,31.0,94,84,65,30.03,29.93,0,0,2,0.00
2013-10-3,51.6,39.8,32.5,35.0,31.9,29.0,89,75,48,29.94,29.69,2,0,2,0.00
2013-10-4,37.6,33.6,29.6,33.0,30.7,28.0,97,89,81,29.93,29.69,0,0,2,0.00
2013-10-5,42.5,34.8,30.8,35.0,31.7,29.0,96,89,72,29.95,29.77,2,0,4,0.00
2013-10-6,42.6,35.6,31.6,33.0,30.3,28.0,96,81,63,29.80,29.74,1,0,3,0.00
2013-10-7,36.4,32.3,29.3,35.0,31.6,29.0,98,96,92,29.95,29.81,1,0,2,0.04
2013-10-8,48.9,39.4,29.3,37.0,32.2,29.0,98,76,57,29.83,29.05,2,0,9,0.01
2013-10-9,39.5,34.9,31.9,37.0,34.0,31.0,97,96,89,29.78,29.07,6,1,10,0.22
2013-10-10,35.1,30.4,26.3,33.0,29.7,26.0,99,97,93,29.82,29.72,1,0,3,0.00
2013-10-11,41.7,33.2,27.8,35.0,30.6,27.0,96,90,76,29.93,29.78,1,0,5,0.01
2013-10-12,51.6,38.2,28.7,37.0,32.3,28.0,97,81,54,29.91,29.79,2,0,5,0.00
2013-10-13,46.1,42.3,37.7,37.0,33.1,31.0,95,70,60,29.78,29.46,3,0,6,0.09
2013-10-14,43.3,36.7,31.4,40.0,35.4,31.0,98,95,84,30.01,29.65,1,0,5,0.03
2013-10-15,47.0,40.2,33.5,41.0,36.2,33.0,97,86,68,30.03,29.91,1,0,5,0.02
2013-10-16,52.0,46.4,41.5,41.0,39.1,37.0,91,76,62,30.16,29.99,1,0,2,0.00
2013-10-17,50.5,44.8,41.6,45.0,39.4,36.0,94,81,74,30.05,29.77,1,0,2,0.03
2013-10-18,53.1,43.7,36.6,41.0,36.4,33.0,95,77,53,29.78,29.64,2,0,4,0.00
2013-10-19,54.3,42.9,36.5,42.0,33.1,29.0,89,69,46,29.65,29.37,2,0,8,0.02
2013-10-20,46.9,38.1,31.6,34.0,31.1,29.0,94,77,56,29.97,29.65,1,0,3,0.00
2013-10-21,35.7,30.1,25.5,28.0,26.3,23.0,93,85,72,30.19,29.97,1,0,2,0.00
2013-10-22,35.8,28.3,23.8,26.0,23.6,21.0,91,83,68,30.28,30.19,0,0,4,0.00
2013-10-23,31.5,25.5,21.7,26.0,22.7,19.0,94,89,78,30.25,29.98,1,0,4,0.00
2013-10-24,31.8,26.2,17.6,25.0,21.3,16.0,94,82,66,30.09,29.78,2,0,5,0.00
2013-10-25,39.1,30.9,23.4,28.0,23.7,20.0,89,74,63,30.26,29.80,1,0,3,0.00
2013-10-26,30.2,22.7,15.7,25.0,20.2,14.0,94,90,80,30.60,30.27,1,0,2,0.00
2013-10-27,43.0,36.1,25.0,36.0,26.5,22.0,96,70,51,30.47,29.75,2,0,3,0.11
2013-10-28,55.3,42.2,36.1,42.0,37.9,35.0,98,86,57,29.72,29.09,2,0,8,0.08
2013-10-29,37.0,33.4,29.0,37.0,32.9,29.0,98,97,96,29.60,29.34,2,0,8,0.30
2013-10-30,31.5,28.7,26.8,31.0,28.0,26.0,98,97,93,29.57,29.27,1,0,2,0.00
2013-10-31,28.3,24.9,20.3,26.0,23.6,19.0,97,95,92,29.79,29.35,2,0,3,0.00
2013-11-1,26.1,24.4,22.5,25.0,23.4,21.0,97,95,92,30.21,29.80,1,0,3,0.00
2013-11-2,25.8,21.9,18.1,24.0,20.5,17.0,95,94,90,30.21,29.90,0,0,2,0.00
2013-11-3,27.0,22.1,18.3,25.0,20.3,17.0,95,92,89,29.93,29.72,0,0,1,0.00
2013-11-4,24.4,20.2,15.9,22.0,18.4,15.0,95,92,89,29.71,29.53,0,0,1,0.00
2013-11-5,21.5,18.0,13.1,21.0,16.6,12.0,96,94,92,30.32,29.62,2,0,2,0.00
2013-11-6,18.5,12.0,4.6,17.0,10.2,2.0,94,92,90,30.43,30.27,0,0,1,0.00
2013-11-7,11.9,6.8,3.0,10.0,4.7,1.0,92,90,88,30.26,30.03,0,0,1,0.00
2013-11-8,13.7,2.1,-6.4,12.0,-0.3,-9.0,94,89,86,30.36,30.12,1,0,1,0.00
2013-11-9,25.7,21.0,13.3,25.0,19.9,12.0,98,95,93,30.26,29.83,0,0,1,0.00
2013-11-10,29.2,26.5,23.9,29.0,25.8,23.0,98,97,96,30.00,29.84,0,0,0,0.00
2013-11-11,23.8,14.9,8.5,23.0,13.6,7.0,97,94,92,30.43,30.01,0,0,0,0.00
2013-11-12,10.6,6.9,2.1,9.0,5.0,0.0,93,91,90,30.44,30.19,0,0,0,0.00
2013-11-13,30.0,16.7,8.6,30.0,15.5,7.0,98,94,91,30.18,29.73,0,0,0,0.00
2013-11-14,35.2,32.9,30.5,34.0,32.4,30.0,99,98,96,29.74,29.72,0,0,0,0.00
2013-11-18,1.1,0.5,-0.4,-1.0,-5.3,-99.9,89,86,89,30.34,30.34,0,-33,0,0.00
2013-11-19,1.2,-7.1,-19.0,-1.0,-10.1,-23.0,89,86,83,30.34,30.25,0,0,0,0.00
2013-11-20,-16.0,-23.5,-28.2,-19.0,-27.3,-32.0,86,82,80,30.53,30.32,0,0,0,0.00
2013-11-21,4.4,-10.5,-19.1,2.0,-13.6,-23.0,90,86,83,30.49,29.75,0,0,0,0.00
2013-11-22,13.6,9.2,3.9,12.0,7.4,2.0,93,92,89,29.73,29.36,0,0,0,0.00
2013-11-23,5.1,3.5,0.8,3.0,1.3,-1.0,91,90,89,30.07,29.58,0,0,0,0.00
2013-11-24,16.6,10.1,4.0,15.0,8.4,2.0,94,92,91,30.17,30.07,0,0,0,0.00
2013-11-25,12.6,9.5,3.7,11.0,7.7,1.0,93,92,89,30.21,30.06,0,0,0,0.00
2013-11-26,10.3,2.9,-2.9,9.0,0.6,-6.0,92,90,88,30.20,30.08,0,0,0,0.00
2013-11-27,2.4,0.9,-3.2,0.0,-1.6,-6.0,90,89,88,30.20,30.01,0,0,0,0.00
2013-11-28,0.4,-1.7,-6.0,-2.0,-4.4,-9.0,89,89,87,30.20,30.00,0,0,0,0.00
2013-11-29,-4.1,-7.5,-10.6,-7.0,-10.6,-14.0,88,87,85,30.51,30.20,0,0,0,0.00
2013-11-30,-9.0,-16.3,-23.2,-12.0,-19.7,-27.0,86,84,81,30.92,30.51,0,0,0,0.00
2013-12-1,-16.8,-20.3,-23.4,-20.0,-24.0,-27.0,84,82,81,30.96,30.90,0,0,0,0.00
2013-12-2,-4.8,-12.5,-18.3,-8.0,-15.8,-22.0,87,85,83,30.96,30.86,0,0,0,0.00
2013-12-3,5.6,0.9,-6.4,4.0,-1.5,-9.0,91,89,87,30.91,30.72,0,0,0,0.00
2013-12-4,15.2,4.4,-1.1,14.0,2.3,-4.0,94,90,89,30.73,30.60,0,0,0,0.00
2013-12-5,18.8,15.1,11.1,18.0,13.7,9.0,95,94,92,30.61,30.53,0,0,0,0.00
2013-12-6,23.3,21.3,18.1,22.0,20.2,17.0,96,95,95,30.61,30.50,0,0,0,0.00
2013-12-7,28.2,24.9,22.6,28.0,24.2,22.0,98,97,96,30.53,30.39,0,0,0,0.00
2013-12-8,31.1,28.8,23.8,31.0,28.4,23.0,99,98,96,30.47,30.33,0,0,0,0.00
2013-12-9,29.3,27.2,24.8,29.0,26.6,24.0,98,97,97,30.35,30.23,0,0,1,0.00
2013-12-10,24.7,10.9,1.7,24.0,9.2,-1.0,97,92,89,30.48,30.24,1,0,2,0.00
2013-12-11,2.0,-2.1,-5.0,0.0,-4.7,-8.0,90,88,86,30.47,30.23,0,0,1,0.00
2013-12-12,1.4,-0.4,-4.5,-2.0,-5.1,-7.0,89,81,75,30.23,30.01,1,0,5,0.00
2013-12-13,-1.5,-7.3,-10.4,-5.0,-11.2,-14.0,85,83,80,30.02,29.47,0,0,2,0.00
2013-12-14,-1.1,-3.5,-6.1,-4.0,-6.5,-9.0,88,86,78,29.53,29.34,0,0,2,0.00
2013-12-15,-5.4,-9.2,-15.9,-8.0,-12.4,-19.0,87,85,84,30.37,29.54,0,0,0,0.00
2013-12-16,-16.8,-26.6,-31.2,-20.0,-30.6,-36.0,84,81,79,30.58,30.37,0,0,0,0.00
2013-12-17,-10.9,-19.5,-27.4,-14.0,-23.2,-32.0,85,83,80,30.60,30.55,0,0,0,0.00
2013-12-18,-0.4,-7.3,-12.2,-3.0,-10.2,-15.0,90,87,85,30.57,30.00,0,0,0,0.00
2013-12-19,4.6,1.1,-2.5,3.0,-1.4,-6.0,92,89,83,30.00,29.89,0,0,0,0.00
2013-12-20,6.5,4.2,1.4,4.0,2.0,-1.0,91,90,88,29.93,29.79,0,0,0,0.00
2013-12-21,12.1,8.0,1.2,10.0,6.0,-2.0,93,91,87,29.85,29.74,0,0,0,0.00
2013-12-22,9.3,6.9,3.2,8.0,4.8,1.0,93,91,90,29.96,29.67,0,0,0,0.00
2013-12-23,7.2,1.1,-3.6,5.0,-1.4,-6.0,90,89,88,30.36,29.97,0,0,0,0.00
2013-12-24,-0.9,-9.3,-19.8,-3.0,-12.3,-23.0,89,86,82,30.39,30.18,0,0,0,0.00
2013-12-25,-19.5,-25.5,-29.5,-23.0,-29.5,-34.0,84,81,79,30.25,30.16,0,0,0,0.00
2013-12-26,-16.3,-26.4,-33.2,-20.0,-30.4,-38.0,85,81,78,30.33,30.24,0,0,0,0.00
2013-12-27,-9.7,-15.4,-17.8,-13.0,-18.7,-21.0,86,84,83,30.34,30.32,0,0,0,0.00
2013-12-28,3.3,-4.9,-10.8,1.0,-7.7,-14.0,90,87,85,30.33,30.20,0,0,0,0.00
2013-12-29,5.4,2.0,-0.2,3.0,-0.3,-3.0,91,90,88,30.28,30.09,0,0,0,0.00
2013-12-30,3.4,1.7,-0.6,1.0,-0.7,-3.0,91,89,88,30.08,29.85,0,0,0,0.00
2013-12-31,10.7,3.4,1.2,9.0,1.1,-1.0,93,90,88,29.94,29.66,0,0,0,0.00
2014-1-1,22.9,18.2,8.5,21.0,16.7,6.0,96,93,90,29.66,29.40,0,0,0,0.00
2014-1-2,7.8,5.5,1.5,6.0,3.5,-1.0,92,91,89,30.24,29.64,0,0,0,0.00